Time;durP1;ratioP1;P1;durP2;ratioP2;P2;SDS_P1;SDS_P2;PMS_P1;PMS_P2;Temp;Humidity;BMP_temperature;BMP_pressure;BME280_temperature;BME280_humidity;BME280_pressure;Samples;Min_cycle;Max_cycle;Signal;HPM_P1;HPM_P2
2023/05/16 00:00:05;;;;;;;24.65;23.15;;;;;;;;;;4995562;28;20046;-62
2023/05/16 00:02:31;;;;;;;25.30;23.63;;;;;;;;;;4995548;28;20031;-62
2023/05/16 00:04:56;;;;;;;23.30;21.90;;;;;;;;;;4998121;28;20041;-54
2023/05/16 00:07:22;;;;;;;22.55;21.15;;;;;;;;;;4996261;28;20107;-52
2023/05/16 00:09:47;;;;;;;21.77;20.35;;;;;;;;;;4996674;28;20045;-54
2023/05/16 00:12:12;;;;;;;21.83;20.48;;;;;;;;;;4996154;28;20567;-53
2023/05/16 00:14:38;;;;;;;21.58;19.95;;;;;;;;;;4996945;28;20364;-51
2023/05/16 00:17:10;;;;;;;20.42;18.92;;;;;;;;;;4995579;28;20461;-54
2023/05/16 00:19:37;;;;;;;20.38;18.98;;;;;;;;;;4999649;28;20034;-51
2023/05/16 00:22:03;;;;;;;19.33;18.08;;;;;;;;;;4994208;28;20038;-53
2023/05/16 00:24:29;;;;;;;18.83;17.60;;;;;;;;;;4998968;28;20104;-53
2023/05/16 00:26:54;;;;;;;18.60;17.00;;;;;;;;;;4996931;28;20040;-63
2023/05/16 00:29:19;;;;;;;19.00;17.65;;;;;;;;;;4998144;28;20034;-63
2023/05/16 00:31:45;;;;;;;19.10;17.63;;;;;;;;;;4998283;28;20115;-53
2023/05/16 00:34:10;;;;;;;16.70;15.50;;;;;;;;;;4997894;28;20487;-63
2023/05/16 00:36:36;;;;;;;16.95;15.75;;;;;;;;;;4997631;28;20124;-62
2023/05/16 00:39:01;;;;;;;18.77;17.30;;;;;;;;;;4997500;28;20038;-63
2023/05/16 00:41:27;;;;;;;19.33;17.60;;;;;;;;;;4997474;28;20064;-54
2023/05/16 00:43:52;;;;;;;14.70;13.80;;;;;;;;;;4998108;28;20109;-62
2023/05/16 00:46:17;;;;;;;16.42;15.25;;;;;;;;;;4993760;28;20030;-63
2023/05/16 00:48:43;;;;;;;17.48;16.27;;;;;;;;;;4996257;28;20190;-62
2023/05/16 00:51:09;;;;;;;17.95;16.65;;;;;;;;;;4998303;28;20065;-62
2023/05/16 00:53:35;;;;;;;16.20;15.15;;;;;;;;;;4996464;28;20066;-54
2023/05/16 00:56:01;;;;;;;16.40;15.30;;;;;;;;;;4984547;28;20049;-54
2023/05/16 00:58:29;;;;;;;17.52;16.25;;;;;;;;;;4995048;28;20042;-54
2023/05/16 01:00:55;;;;;;;18.38;16.83;;;;;;;;;;4995666;28;20108;-53
2023/05/16 01:03:21;;;;;;;17.63;16.35;;;;;;;;;;4997592;28;20042;-52
2023/05/16 01:05:48;;;;;;;18.95;17.75;;;;;;;;;;4997203;28;20029;-62
2023/05/16 01:08:14;;;;;;;21.10;19.20;;;;;;;;;;4996294;28;20061;-53
2023/05/16 01:10:56;;;;;;;20.10;18.48;;;;;;;;;;4993286;28;20069;-53
2023/05/16 01:13:32;;;;;;;21.13;19.77;;;;;;;;;;5000932;28;20074;-62
2023/05/16 01:16:08;;;;;;;22.50;21.13;;;;;;;;;;5000162;28;20042;-52
2023/05/16 01:18:58;;;;;;;23.63;22.13;;;;;;;;;;5000650;28;20664;-63
2023/05/16 01:21:48;;;;;;;24.20;22.60;;;;;;;;;;5000047;28;20354;-53
2023/05/16 01:24:33;;;;;;;24.90;23.43;;;;;;;;;;4949830;28;20072;-53
2023/05/16 01:26:59;;;;;;;26.90;25.00;;;;;;;;;;4999612;28;20528;-51
2023/05/16 01:29:24;;;;;;;28.25;26.45;;;;;;;;;;5000964;28;20044;-62
2023/05/16 01:31:50;;;;;;;27.02;25.42;;;;;;;;;;4975777;28;20169;-63
2023/05/16 01:34:16;;;;;;;27.88;26.25;;;;;;;;;;4999708;28;20416;-63
2023/05/16 01:36:52;;;;;;;31.80;29.95;;;;;;;;;;4996961;28;20644;-62
2023/05/16 01:39:33;;;;;;;31.42;29.08;;;;;;;;;;5000628;28;20026;-63
2023/05/16 01:42:03;;;;;;;;;;;;;;;;;;4999765;28;20909;-62
2023/05/16 01:44:42;;;;;;;26.60;25.13;;;;;;;;;;4999435;28;20051;-53
2023/05/16 01:47:19;;;;;;;32.40;30.45;;;;;;;;;;4998228;28;20037;-62
2023/05/16 01:50:02;;;;;;;33.47;31.40;;;;;;;;;;4999117;28;20034;-54
2023/05/16 01:52:36;;;;;;;35.83;33.72;;;;;;;;;;4998547;28;20762;-62
2023/05/16 01:55:02;;;;;;;36.92;34.72;;;;;;;;;;4999789;28;20037;-63
2023/05/16 01:57:28;;;;;;;38.47;36.05;;;;;;;;;;5000555;28;20038;-63
2023/05/16 01:59:54;;;;;;;37.35;35.17;;;;;;;;;;4998061;28;20743;-63
2023/05/16 02:02:19;;;;;;;34.83;32.97;;;;;;;;;;4997556;28;20041;-62
2023/05/16 02:04:45;;;;;;;36.65;34.60;;;;;;;;;;4998744;28;20511;-54
2023/05/16 02:07:13;;;;;;;38.45;36.15;;;;;;;;;;5000046;28;20068;-51
2023/05/16 02:09:39;;;;;;;39.15;36.97;;;;;;;;;;4996629;28;20030;-52
2023/05/16 02:12:05;;;;;;;39.25;36.90;;;;;;;;;;4999640;28;20486;-62
2023/05/16 02:14:30;;;;;;;38.10;35.90;;;;;;;;;;4998982;28;20794;-53
2023/05/16 02:16:56;;;;;;;35.42;33.40;;;;;;;;;;4999824;28;20097;-62
2023/05/16 02:19:22;;;;;;;37.03;35.05;;;;;;;;;;4997496;28;20253;-63
2023/05/16 02:21:47;;;;;;;36.60;34.40;;;;;;;;;;4996713;28;20346;-62
2023/05/16 02:24:12;;;;;;;36.80;34.70;;;;;;;;;;5001259;28;20089;-52
2023/05/16 02:26:38;;;;;;;36.40;34.10;;;;;;;;;;5000506;28;20421;-63
2023/05/16 02:29:03;;;;;;;36.25;34.05;;;;;;;;;;5003080;28;20045;-63
2023/05/16 02:31:30;;;;;;;35.65;33.70;;;;;;;;;;5001669;28;20029;-63
2023/05/16 02:33:57;;;;;;;34.33;32.42;;;;;;;;;;4997791;28;20515;-53
2023/05/16 02:36:22;;;;;;;37.92;35.88;;;;;;;;;;5001550;28;20117;-54
2023/05/16 02:38:48;;;;;;;37.50;35.47;;;;;;;;;;4997923;28;20481;-53
2023/05/16 02:41:13;;;;;;;38.20;35.97;;;;;;;;;;5000538;28;20035;-50
2023/05/16 02:43:38;;;;;;;34.20;32.35;;;;;;;;;;4995386;28;20034;-62
2023/05/16 02:46:04;;;;;;;33.15;31.35;;;;;;;;;;4998787;28;20030;-62
2023/05/16 02:48:30;;;;;;;33.38;31.55;;;;;;;;;;4997780;28;20041;-62
2023/05/16 02:50:56;;;;;;;33.70;31.88;;;;;;;;;;4980574;28;20172;-62
2023/05/16 02:53:21;;;;;;;36.03;33.72;;;;;;;;;;4998398;28;20121;-52
2023/05/16 02:55:46;;;;;;;32.72;30.83;;;;;;;;;;4996637;28;20402;-53
2023/05/16 02:58:12;;;;;;;34.75;32.55;;;;;;;;;;4997259;28;20427;-54
2023/05/16 03:00:37;;;;;;;35.50;33.30;;;;;;;;;;4997654;28;20038;-62
2023/05/16 03:03:03;;;;;;;34.58;32.67;;;;;;;;;;4987859;28;20048;-62
2023/05/16 03:05:28;;;;;;;33.30;31.33;;;;;;;;;;5002395;28;20121;-54
2023/05/16 03:07:53;;;;;;;33.60;31.65;;;;;;;;;;4998517;28;20113;-63
2023/05/16 03:10:19;;;;;;;31.98;30.02;;;;;;;;;;4997568;28;20063;-62
2023/05/16 03:12:45;;;;;;;31.95;30.10;;;;;;;;;;5000031;28;20065;-53
2023/05/16 03:15:10;;;;;;;29.48;27.80;;;;;;;;;;5000307;28;20048;-61
2023/05/16 03:17:35;;;;;;;29.35;27.75;;;;;;;;;;4998585;28;20037;-52
2023/05/16 03:20:02;;;;;;;30.05;28.40;;;;;;;;;;4997411;28;20030;-52
2023/05/16 03:22:27;;;;;;;29.98;28.27;;;;;;;;;;5000187;28;20526;-53
2023/05/16 03:24:52;;;;;;;30.02;28.33;;;;;;;;;;4999331;28;20084;-62
2023/05/16 03:27:18;;;;;;;29.00;27.05;;;;;;;;;;4999374;28;20034;-62
2023/05/16 03:29:43;;;;;;;30.95;29.05;;;;;;;;;;4998100;28;20061;-51
2023/05/16 03:32:10;;;;;;;31.50;29.48;;;;;;;;;;4997971;28;20026;-54
2023/05/16 03:34:35;;;;;;;30.63;28.88;;;;;;;;;;4998820;28;20068;-62
2023/05/16 03:37:01;;;;;;;26.90;25.27;;;;;;;;;;4996287;28;20052;-62
2023/05/16 03:39:26;;;;;;;27.00;25.40;;;;;;;;;;4993548;28;20121;-63
2023/05/16 03:41:54;;;;;;;28.80;26.80;;;;;;;;;;4998128;28;20038;-62
2023/05/16 03:44:20;;;;;;;27.88;26.17;;;;;;;;;;4997366;28;20255;-50
2023/05/16 03:46:45;;;;;;;28.17;26.52;;;;;;;;;;4999323;28;20037;-62
2023/05/16 03:49:10;;;;;;;26.85;25.38;;;;;;;;;;4998207;28;20021;-51
2023/05/16 03:51:36;;;;;;;24.75;23.30;;;;;;;;;;5000931;28;20042;-62
2023/05/16 03:54:01;;;;;;;24.60;23.10;;;;;;;;;;4999131;28;20062;-62
2023/05/16 03:56:26;;;;;;;23.92;22.48;;;;;;;;;;4978536;28;20612;-53
2023/05/16 03:58:52;;;;;;;24.55;23.13;;;;;;;;;;4996589;28;20057;-50
2023/05/16 04:01:17;;;;;;;24.67;23.20;;;;;;;;;;4999419;28;20038;-62
2023/05/16 04:03:42;;;;;;;25.25;23.70;;;;;;;;;;4998825;28;20044;-62
2023/05/16 04:06:08;;;;;;;26.90;25.23;;;;;;;;;;4997846;28;20034;-62
2023/05/16 04:08:33;;;;;;;25.27;23.77;;;;;;;;;;4991698;28;20022;-62
2023/05/16 04:10:58;;;;;;;27.30;25.30;;;;;;;;;;4997500;28;20042;-53
2023/05/16 04:13:24;;;;;;;27.42;25.63;;;;;;;;;;4997289;28;20033;-62
2023/05/16 04:15:50;;;;;;;25.63;24.13;;;;;;;;;;4997177;28;20034;-53
2023/05/16 04:18:15;;;;;;;27.40;25.77;;;;;;;;;;4995834;28;20904;-62
2023/05/16 04:20:41;;;;;;;28.80;27.17;;;;;;;;;;4997837;28;20250;-62
2023/05/16 04:23:07;;;;;;;25.30;23.88;;;;;;;;;;4997712;28;20113;-63
2023/05/16 04:25:33;;;;;;;26.52;25.05;;;;;;;;;;4998847;28;20397;-52
2023/05/16 04:27:58;;;;;;;29.05;27.45;;;;;;;;;;4994988;28;20030;-54
2023/05/16 04:30:23;;;;;;;29.63;27.67;;;;;;;;;;4998454;28;20455;-51
2023/05/16 04:32:49;;;;;;;29.80;28.15;;;;;;;;;;4993409;28;20042;-63
2023/05/16 04:35:15;;;;;;;32.20;30.40;;;;;;;;;;5001049;28;20029;-63
2023/05/16 04:37:40;;;;;;;28.88;27.17;;;;;;;;;;4996199;28;20332;-63
2023/05/16 04:40:08;;;;;;;29.17;27.50;;;;;;;;;;4996070;28;20038;-51
2023/05/16 04:42:34;;;;;;;28.38;26.73;;;;;;;;;;4993444;28;20083;-52
2023/05/16 04:45:00;;;;;;;27.40;25.90;;;;;;;;;;4995844;28;20046;-52
2023/05/16 04:47:25;;;;;;;31.80;29.67;;;;;;;;;;4994866;28;20025;-54
2023/05/16 04:49:50;;;;;;;31.98;30.17;;;;;;;;;;4997518;28;20057;-52
2023/05/16 04:52:16;;;;;;;31.23;29.42;;;;;;;;;;4999360;28;20574;-53
2023/05/16 04:54:41;;;;;;;30.88;28.98;;;;;;;;;;4995603;28;20034;-51
2023/05/16 04:57:06;;;;;;;30.05;28.40;;;;;;;;;;4979748;28;20631;-50
2023/05/16 04:59:32;;;;;;;29.52;27.85;;;;;;;;;;4994561;28;20080;-50
2023/05/16 05:01:57;;;;;;;27.23;25.73;;;;;;;;;;4991656;28;20034;-50
2023/05/16 05:04:23;;;;;;;30.02;28.40;;;;;;;;;;4994143;28;20026;-50
2023/05/16 05:06:49;;;;;;;28.05;26.55;;;;;;;;;;4995761;28;20095;-51
2023/05/16 05:09:15;;;;;;;26.25;24.83;;;;;;;;;;4996730;28;21891;-50
2023/05/16 05:11:40;;;;;;;26.27;24.38;;;;;;;;;;4995195;28;20753;-50
2023/05/16 05:14:05;;;;;;;28.23;26.67;;;;;;;;;;4996552;28;20149;-50
2023/05/16 05:16:31;;;;;;;27.50;25.98;;;;;;;;;;4997298;28;20041;-51
2023/05/16 05:18:57;;;;;;;27.05;25.60;;;;;;;;;;4995038;28;20030;-52
2023/05/16 05:21:24;;;;;;;28.58;27.08;;;;;;;;;;4995858;28;20038;-51
2023/05/16 05:23:49;;;;;;;26.95;25.45;;;;;;;;;;4997279;28;20786;-50
2023/05/16 05:26:15;;;;;;;28.00;26.50;;;;;;;;;;4997239;28;20030;-49
2023/05/16 05:28:40;;;;;;;27.13;25.67;;;;;;;;;;4999973;28;20030;-52
2023/05/16 05:31:06;;;;;;;26.13;24.73;;;;;;;;;;4994929;28;20124;-49
2023/05/16 05:33:32;;;;;;;26.45;25.05;;;;;;;;;;4996658;28;20044;-48
2023/05/16 05:35:58;;;;;;;25.73;24.38;;;;;;;;;;4993636;28;20043;-49
2023/05/16 05:38:23;;;;;;;24.45;23.15;;;;;;;;;;4993534;28;20471;-51
2023/05/16 05:40:49;;;;;;;27.33;25.88;;;;;;;;;;4993809;28;20044;-50
2023/05/16 05:43:14;;;;;;;21.27;20.13;;;;;;;;;;4995417;28;20037;-52
2023/05/16 05:45:40;;;;;;;18.80;17.73;;;;;;;;;;4996253;28;20048;-48
2023/05/16 05:48:06;;;;;;;17.20;16.25;;;;;;;;;;4997399;28;20046;-53
2023/05/16 05:50:31;;;;;;;19.25;18.17;;;;;;;;;;4994735;28;20782;-50
2023/05/16 05:52:57;;;;;;;16.85;15.95;;;;;;;;;;4993665;28;20031;-51
2023/05/16 05:55:22;;;;;;;16.17;15.27;;;;;;;;;;4993846;28;20087;-50
2023/05/16 05:57:47;;;;;;;19.88;18.77;;;;;;;;;;4996779;28;20096;-50
2023/05/16 06:00:13;;;;;;;20.80;19.70;;;;;;;;;;4995550;28;20053;-50
2023/05/16 06:02:39;;;;;;;20.13;19.02;;;;;;;;;;4998843;28;20048;-52
2023/05/16 06:05:04;;;;;;;20.90;19.80;;;;;;;;;;5000375;28;20038;-52
2023/05/16 06:07:30;;;;;;;22.33;21.13;;;;;;;;;;4996610;28;20026;-53
2023/05/16 06:09:55;;;;;;;20.20;19.10;;;;;;;;;;5000103;28;20064;-49
2023/05/16 06:12:20;;;;;;;19.75;18.65;;;;;;;;;;5000168;28;20058;-49
2023/05/16 06:14:46;;;;;;;19.60;18.48;;;;;;;;;;5002634;28;20038;-49
2023/05/16 06:17:11;;;;;;;22.90;21.70;;;;;;;;;;5000526;28;20038;-50
2023/05/16 06:19:37;;;;;;;24.05;22.65;;;;;;;;;;4998423;28;20049;-53
2023/05/16 06:22:02;;;;;;;25.42;24.02;;;;;;;;;;4998617;28;20433;-52
2023/05/16 06:24:28;;;;;;;25.08;23.73;;;;;;;;;;4973527;28;20052;-52
2023/05/16 06:26:54;;;;;;;23.50;22.20;;;;;;;;;;4999559;28;20428;-52
2023/05/16 06:29:19;;;;;;;19.35;18.25;;;;;;;;;;4994685;28;20076;-53
2023/05/16 06:31:45;;;;;;;17.58;16.58;;;;;;;;;;5001107;28;20469;-50
2023/05/16 06:34:11;;;;;;;14.30;13.50;;;;;;;;;;4997266;28;20096;-52
2023/05/16 06:36:36;;;;;;;13.73;12.93;;;;;;;;;;4991897;28;20046;-51
2023/05/16 06:39:02;;;;;;;11.95;11.15;;;;;;;;;;4996506;28;20041;-53
2023/05/16 06:41:27;;;;;;;11.20;10.50;;;;;;;;;;4998287;28;20030;-52
2023/05/16 06:43:52;;;;;;;12.68;11.98;;;;;;;;;;4998077;28;20038;-52
2023/05/16 06:46:18;;;;;;;14.77;13.88;;;;;;;;;;4997944;28;20171;-53
2023/05/16 06:48:43;;;;;;;12.65;11.90;;;;;;;;;;4998311;28;20165;-53
2023/05/16 06:51:09;;;;;;;12.27;11.48;;;;;;;;;;4995418;28;20152;-55
2023/05/16 06:53:35;;;;;;;10.10;9.50;;;;;;;;;;4999024;28;20033;-54
2023/05/16 06:56:00;;;;;;;9.93;9.23;;;;;;;;;;4998835;28;20052;-53
2023/05/16 06:58:26;;;;;;;12.27;11.57;;;;;;;;;;5002083;28;20034;-53
2023/05/16 07:00:51;;;;;;;11.50;10.80;;;;;;;;;;4995372;28;20056;-50
2023/05/16 07:03:17;;;;;;;11.75;11.05;;;;;;;;;;5001643;28;20030;-50
2023/05/16 07:05:42;;;;;;;12.30;11.60;;;;;;;;;;4998511;28;20362;-53
2023/05/16 07:08:11;;;;;;;10.52;9.93;;;;;;;;;;4983919;28;20038;-50
2023/05/16 07:10:39;;;;;;;12.25;11.45;;;;;;;;;;4995745;28;20088;-55
2023/05/16 07:13:05;;;;;;;11.65;10.95;;;;;;;;;;4998097;28;20149;-54
2023/05/16 07:15:31;;;;;;;11.15;10.45;;;;;;;;;;4997636;28;20503;-52
2023/05/16 07:17:56;;;;;;;12.77;12.02;;;;;;;;;;4991996;28;20376;-52
2023/05/16 07:20:22;;;;;;;11.63;10.93;;;;;;;;;;5000604;28;20596;-54
2023/05/16 07:22:47;;;;;;;12.20;11.50;;;;;;;;;;4998633;28;20121;-54
2023/05/16 07:25:14;;;;;;;13.48;12.68;;;;;;;;;;4999490;28;20128;-53
2023/05/16 07:27:43;;;;;;;11.45;10.75;;;;;;;;;;4996656;28;20041;-52
2023/05/16 07:30:12;;;;;;;11.05;10.35;;;;;;;;;;4991695;28;20092;-54
2023/05/16 07:32:38;;;;;;;9.50;8.90;;;;;;;;;;4998559;28;20299;-53
2023/05/16 07:35:03;;;;;;;10.73;10.13;;;;;;;;;;4996454;28;20373;-54
2023/05/16 07:37:29;;;;;;;11.23;10.52;;;;;;;;;;4996054;28;20029;-55
2023/05/16 07:39:55;;;;;;;11.95;11.25;;;;;;;;;;4996019;28;20041;-55
2023/05/16 07:42:20;;;;;;;11.43;10.73;;;;;;;;;;4995616;28;20691;-54
2023/05/16 07:44:46;;;;;;;12.02;11.32;;;;;;;;;;4999031;28;20029;-54
2023/05/16 07:47:12;;;;;;;12.80;12.07;;;;;;;;;;4998394;28;20042;-55
2023/05/16 07:49:37;;;;;;;10.93;10.25;;;;;;;;;;4985062;28;20041;-55
2023/05/16 07:52:03;;;;;;;12.18;11.48;;;;;;;;;;4995323;28;20046;-53
2023/05/16 07:54:28;;;;;;;11.00;10.30;;;;;;;;;;4996539;28;20048;-55
2023/05/16 07:56:54;;;;;;;9.65;9.05;;;;;;;;;;4996669;28;20052;-52
2023/05/16 07:59:19;;;;;;;9.93;9.32;;;;;;;;;;4999549;28;20061;-52
2023/05/16 08:01:45;;;;;;;10.20;9.60;;;;;;;;;;4983563;28;20037;-52
2023/05/16 08:04:10;;;;;;;10.23;9.63;;;;;;;;;;4995563;28;20073;-54
2023/05/16 08:06:35;;;;;;;13.35;9.95;;;;;;;;;;4999512;28;20129;-54
2023/05/16 08:09:01;;;;;;;10.50;9.90;;;;;;;;;;4998317;28;20117;-53
2023/05/16 08:11:26;;;;;;;9.48;8.88;;;;;;;;;;4998640;28;21175;-55
2023/05/16 08:13:52;;;;;;;9.30;8.70;;;;;;;;;;4996938;28;20171;-54
2023/05/16 08:16:17;;;;;;;9.40;8.80;;;;;;;;;;4991524;28;20141;-54
2023/05/16 08:18:43;;;;;;;9.45;8.85;;;;;;;;;;4995436;28;20041;-55
2023/05/16 08:21:08;;;;;;;9.32;8.73;;;;;;;;;;4999664;28;20033;-55
2023/05/16 08:23:35;;;;;;;9.20;8.60;;;;;;;;;;4973669;28;20423;-54
2023/05/16 08:26:00;;;;;;;9.70;9.10;;;;;;;;;;5001619;28;20439;-54
2023/05/16 08:28:26;;;;;;;9.50;8.90;;;;;;;;;;4996751;28;20033;-55
2023/05/16 08:30:51;;;;;;;9.65;9.05;;;;;;;;;;4996649;28;20047;-53
2023/05/16 08:33:17;;;;;;;9.25;8.65;;;;;;;;;;4997941;28;20034;-55
2023/05/16 08:35:42;;;;;;;9.30;8.70;;;;;;;;;;4997143;28;20053;-54
2023/05/16 08:38:08;;;;;;;11.13;10.43;;;;;;;;;;4996944;28;20416;-55
2023/05/16 08:40:33;;;;;;;8.75;8.18;;;;;;;;;;4996111;28;20061;-55
2023/05/16 08:42:59;;;;;;;9.25;8.65;;;;;;;;;;4995905;28;20632;-54
2023/05/16 08:45:25;;;;;;;9.82;9.23;;;;;;;;;;4995327;28;20587;-51
2023/05/16 08:47:54;;;;;;;9.40;8.80;;;;;;;;;;4999141;28;20037;-55
2023/05/16 08:50:20;;;;;;;9.25;8.65;;;;;;;;;;4996292;28;20037;-54
2023/05/16 08:52:48;;;;;;;9.25;8.65;;;;;;;;;;4996478;28;20038;-54
2023/05/16 08:55:15;;;;;;;9.10;8.50;;;;;;;;;;4997851;28;20042;-55
2023/05/16 08:57:41;;;;;;;9.40;8.80;;;;;;;;;;4998518;28;20033;-55
2023/05/16 09:00:12;;;;;;;9.55;8.95;;;;;;;;;;4997727;28;20037;-55
2023/05/16 09:02:41;;;;;;;;;;;;;;;;;;4981041;28;20044;-53
2023/05/16 09:05:09;;;;;;;9.73;9.13;;;;;;;;;;4993980;28;19917;-54
2023/05/16 09:07:35;;;;;;;9.23;8.63;;;;;;;;;;4995928;28;20075;-55
2023/05/16 09:10:00;;;;;;;8.98;8.38;;;;;;;;;;4994976;28;20121;-51
2023/05/16 09:12:25;;;;;;;8.95;8.35;;;;;;;;;;4997698;28;20045;-55
2023/05/16 09:14:51;;;;;;;10.57;9.88;;;;;;;;;;4994858;28;20721;-53
2023/05/16 09:17:16;;;;;;;9.50;8.90;;;;;;;;;;4995619;28;20064;-56
2023/05/16 09:19:43;;;;;;;9.80;9.20;;;;;;;;;;4994119;28;20037;-54
2023/05/16 09:22:11;;;;;;;9.05;8.45;;;;;;;;;;4993812;28;20120;-56
2023/05/16 09:24:41;;;;;;;9.10;8.50;;;;;;;;;;4994862;28;20037;-54
2023/05/16 09:27:07;;;;;;;8.73;8.17;;;;;;;;;;4992862;28;20120;-55
2023/05/16 09:29:33;;;;;;;9.43;8.82;;;;;;;;;;4995194;28;20037;-54
2023/05/16 09:32:13;;;;;;;9.90;9.30;;;;;;;;;;4999638;28;20820;-54
2023/05/16 09:34:47;;;;;;;10.30;9.60;;;;;;;;;;5001407;28;20037;-54
2023/05/16 09:37:16;;;;;;;9.60;9.00;;;;;;;;;;4999332;28;20042;-53
2023/05/16 09:39:49;;;;;;;9.15;8.55;;;;;;;;;;4994809;28;20038;-53
2023/05/16 09:42:16;;;;;;;9.60;9.00;;;;;;;;;;5000036;28;20034;-50
2023/05/16 09:44:49;;;;;;;9.45;8.85;;;;;;;;;;4987696;28;20077;-54
2023/05/16 09:47:16;;;;;;;12.82;12.07;;;;;;;;;;4997249;28;20131;-56
2023/05/16 09:49:43;;;;;;;13.57;12.80;;;;;;;;;;5002067;28;20121;-53
2023/05/16 09:52:08;;;;;;;14.48;13.68;;;;;;;;;;4999523;28;20527;-54
2023/05/16 09:54:34;;;;;;;13.93;13.07;;;;;;;;;;5001607;28;20041;-53
2023/05/16 09:57:00;;;;;;;15.40;14.50;;;;;;;;;;4989264;28;20367;-53
2023/05/16 09:59:29;;;;;;;15.43;14.52;;;;;;;;;;5002349;28;20296;-52
2023/05/16 10:02:00;;;;;;;14.88;13.98;;;;;;;;;;4999713;28;20100;-52
2023/05/16 10:04:25;;;;;;;15.30;14.40;;;;;;;;;;4998188;28;20038;-54
2023/05/16 10:06:56;;;;;;;14.27;13.48;;;;;;;;;;5000742;28;20054;-51
2023/05/16 10:09:23;;;;;;;15.80;14.90;;;;;;;;;;4996953;28;20050;-53
2023/05/16 10:11:50;;;;;;;15.63;14.73;;;;;;;;;;4999973;28;20034;-55
2023/05/16 10:14:17;;;;;;;15.45;14.55;;;;;;;;;;5000547;28;20471;-52
2023/05/16 10:16:46;;;;;;;14.70;13.90;;;;;;;;;;5000140;28;20949;-52
2023/05/16 10:19:13;;;;;;;15.32;14.43;;;;;;;;;;5000481;28;20586;-50
2023/05/16 10:21:41;;;;;;;15.80;14.90;;;;;;;;;;5000199;28;20033;-51
2023/05/16 10:24:10;;;;;;;15.75;14.85;;;;;;;;;;4998285;28;20045;-49
2023/05/16 10:26:36;;;;;;;16.63;15.73;;;;;;;;;;4998636;28;20416;-53
2023/05/16 10:29:01;;;;;;;15.95;15.05;;;;;;;;;;5000621;28;20168;-54
2023/05/16 10:31:28;;;;;;;14.10;13.30;;;;;;;;;;4992570;28;20031;-53
2023/05/16 10:33:55;;;;;;;15.75;14.85;;;;;;;;;;5002306;28;20052;-53
2023/05/16 10:36:21;;;;;;;15.10;14.20;;;;;;;;;;5006854;28;20375;-54
2023/05/16 10:38:48;;;;;;;13.93;12.88;;;;;;;;;;5000196;28;20543;-54
2023/05/16 10:41:13;;;;;;;12.90;12.10;;;;;;;;;;4999702;28;20046;-53
2023/05/16 10:43:39;;;;;;;11.98;11.27;;;;;;;;;;4997993;28;20026;-53
2023/05/16 10:46:10;;;;;;;12.25;11.52;;;;;;;;;;4999110;28;20026;-54
2023/05/16 10:48:37;;;;;;;12.77;11.98;;;;;;;;;;4999357;28;20030;-52
2023/05/16 10:51:23;;;;;;;11.68;10.98;;;;;;;;;;5000340;28;20042;-54
2023/05/16 10:54:05;;;;;;;14.07;13.27;;;;;;;;;;5002333;28;20041;-56
2023/05/16 10:56:32;;;;;;;11.75;11.05;;;;;;;;;;4999349;28;20355;-53
2023/05/16 10:58:57;;;;;;;16.45;15.45;;;;;;;;;;4981380;28;20073;-54
2023/05/16 11:01:28;;;;;;;13.38;12.55;;;;;;;;;;4997775;28;20192;-54
2023/05/16 11:04:03;;;;;;;10.85;10.20;;;;;;;;;;4998716;28;20533;-54
2023/05/16 11:06:34;;;;;;;12.93;12.15;;;;;;;;;;4997432;28;20057;-53
2023/05/16 11:09:03;;;;;;;;;;;;;;;;;;4998558;28;20480;-53
2023/05/16 11:11:51;;;;;;;14.82;13.93;;;;;;;;;;4998925;28;19921;-54
2023/05/16 11:14:28;;;;;;;14.73;13.82;;;;;;;;;;5000433;28;20038;-52
2023/05/16 11:17:02;;;;;;;16.17;15.15;;;;;;;;;;4996225;28;20543;-55
2023/05/16 11:19:58;;;;;;;12.43;11.73;;;;;;;;;;4994959;28;20030;-53
2023/05/16 11:22:29;;;;;;;13.07;12.27;;;;;;;;;;5001158;28;20050;-52
2023/05/16 11:24:56;;;;;;;12.63;11.93;;;;;;;;;;4998650;28;20064;-52
2023/05/16 11:27:29;;;;;;;12.43;11.73;;;;;;;;;;4996747;28;20049;-55
2023/05/16 11:30:20;;;;;;;12.82;12.13;;;;;;;;;;5001024;28;20041;-55
2023/05/16 11:32:47;;;;;;;15.80;14.52;;;;;;;;;;4999032;28;20034;-55
2023/05/16 11:35:16;;;;;;;13.68;12.88;;;;;;;;;;4997709;28;20482;-55
2023/05/16 11:37:43;;;;;;;12.93;12.13;;;;;;;;;;4994678;28;20349;-53
2023/05/16 11:40:11;;;;;;;12.57;11.88;;;;;;;;;;4998527;28;20516;-53
2023/05/16 11:42:41;;;;;;;13.68;12.88;;;;;;;;;;4998921;28;20105;-55
2023/05/16 11:45:08;;;;;;;14.90;14.02;;;;;;;;;;5000798;28;20797;-54
2023/05/16 11:47:41;;;;;;;15.13;14.23;;;;;;;;;;4998811;28;20049;-54
2023/05/16 11:50:14;;;;;;;16.20;15.30;;;;;;;;;;4995406;28;20049;-57
2023/05/16 11:52:45;;;;;;;16.88;15.88;;;;;;;;;;4999646;28;20049;-55
2023/05/16 11:55:11;;;;;;;15.65;14.75;;;;;;;;;;5001348;28;20472;-54
2023/05/16 11:57:38;;;;;;;14.23;13.43;;;;;;;;;;4998120;28;20050;-55
2023/05/16 12:00:10;;;;;;;15.30;14.40;;;;;;;;;;5002197;28;20083;-51
2023/05/16 12:02:35;;;;;;;13.50;12.70;;;;;;;;;;4997938;28;20119;-50
2023/05/16 12:05:08;;;;;;;13.70;12.90;;;;;;;;;;5000419;28;20484;-53
2023/05/16 12:07:34;;;;;;;13.55;12.75;;;;;;;;;;5000170;28;20033;-54
2023/05/16 12:10:06;;;;;;;13.77;12.98;;;;;;;;;;4999916;28;20045;-54
2023/05/16 12:12:32;;;;;;;13.48;12.68;;;;;;;;;;4997305;28;20030;-53
2023/05/16 12:14:58;;;;;;;12.73;12.00;;;;;;;;;;4997418;28;20038;-52
2023/05/16 12:17:24;;;;;;;13.68;12.88;;;;;;;;;;4998815;28;20042;-52
2023/05/16 12:19:49;;;;;;;20.55;13.95;;;;;;;;;;4979712;28;20068;-53
2023/05/16 12:22:17;;;;;;;14.65;13.70;;;;;;;;;;4998607;28;20042;-55
2023/05/16 12:24:43;;;;;;;13.65;12.85;;;;;;;;;;5003992;28;20046;-51
2023/05/16 12:27:08;;;;;;;14.23;13.43;;;;;;;;;;4996029;28;20100;-55
2023/05/16 12:29:33;;;;;;;16.65;15.65;;;;;;;;;;4998472;28;20030;-55
2023/05/16 12:31:59;;;;;;;15.00;13.50;;;;;;;;;;4996809;28;20049;-52
2023/05/16 12:34:28;;;;;;;16.33;15.43;;;;;;;;;;4992929;28;20541;-56
2023/05/16 12:36:53;;;;;;;15.55;14.65;;;;;;;;;;4997907;28;20164;-53
2023/05/16 12:39:19;;;;;;;17.13;16.02;;;;;;;;;;4995781;28;20112;-55
2023/05/16 12:41:44;;;;;;;13.02;12.27;;;;;;;;;;4996683;28;20473;-55
2023/05/16 12:44:18;;;;;;;15.13;14.23;;;;;;;;;;4993757;28;20034;-54
2023/05/16 12:46:50;;;;;;;14.20;13.38;;;;;;;;;;4983507;28;20065;-54
2023/05/16 12:49:22;;;;;;;15.52;14.63;;;;;;;;;;4994587;28;20323;-54
2023/05/16 12:51:53;;;;;;;15.70;14.80;;;;;;;;;;4994740;28;20034;-54
2023/05/16 12:54:21;;;;;;;18.83;17.63;;;;;;;;;;4997371;28;20045;-54
2023/05/16 12:56:47;;;;;;;18.77;17.67;;;;;;;;;;4997335;28;20096;-55
2023/05/16 12:59:12;;;;;;;18.05;16.90;;;;;;;;;;4995141;28;20054;-54
2023/05/16 13:01:39;;;;;;;21.30;20.20;;;;;;;;;;4997666;28;20051;-51
2023/05/16 13:04:04;;;;;;;21.17;20.08;;;;;;;;;;4994836;28;20041;-51
2023/05/16 13:06:30;;;;;;;18.73;17.73;;;;;;;;;;4998711;28;20459;-52
2023/05/16 13:08:56;;;;;;;20.83;19.52;;;;;;;;;;4996764;28;20439;-55
2023/05/16 13:11:22;;;;;;;21.85;20.65;;;;;;;;;;4996647;28;20052;-51
2023/05/16 13:13:47;;;;;;;20.08;18.98;;;;;;;;;;5001328;28;20033;-54
2023/05/16 13:16:13;;;;;;;20.33;19.23;;;;;;;;;;4992118;28;20512;-56
2023/05/16 13:18:38;;;;;;;19.23;18.13;;;;;;;;;;4994426;28;20043;-55
2023/05/16 13:21:03;;;;;;;21.08;19.88;;;;;;;;;;4999034;28;20098;-54
2023/05/16 13:23:29;;;;;;;23.58;22.27;;;;;;;;;;4994165;28;20041;-56
2023/05/16 13:25:55;;;;;;;21.45;20.25;;;;;;;;;;4994047;28;20137;-52
2023/05/16 13:28:20;;;;;;;20.13;19.02;;;;;;;;;;4995283;28;20030;-55
2023/05/16 13:30:46;;;;;;;21.25;20.05;;;;;;;;;;4996447;28;20034;-52
2023/05/16 13:33:11;;;;;;;22.35;21.05;;;;;;;;;;4994644;28;20672;-53
2023/05/16 13:35:37;;;;;;;20.88;19.77;;;;;;;;;;4993551;28;20460;-55
2023/05/16 13:38:03;;;;;;;20.05;18.95;;;;;;;;;;4999241;28;20104;-56
2023/05/16 13:40:28;;;;;;;21.23;20.10;;;;;;;;;;4994910;28;20845;-55
2023/05/16 13:42:54;;;;;;;20.83;19.73;;;;;;;;;;4995461;28;20039;-54
2023/05/16 13:45:19;;;;;;;18.95;17.95;;;;;;;;;;4995315;28;20034;-55
2023/05/16 13:47:44;;;;;;;19.35;18.27;;;;;;;;;;4995320;28;20112;-55
2023/05/16 13:50:11;;;;;;;20.02;18.92;;;;;;;;;;4999066;28;20364;-55
2023/05/16 13:52:37;;;;;;;19.20;18.10;;;;;;;;;;4995333;28;20348;-52
2023/05/16 13:55:03;;;;;;;22.88;21.45;;;;;;;;;;5000088;28;20042;-57
2023/05/16 13:57:30;;;;;;;20.33;19.23;;;;;;;;;;4989671;28;20041;-55
2023/05/16 13:59:55;;;;;;;22.05;20.85;;;;;;;;;;4977377;28;20031;-57
2023/05/16 14:02:21;;;;;;;22.48;21.27;;;;;;;;;;4996281;28;20125;-55
2023/05/16 14:04:46;;;;;;;20.98;19.77;;;;;;;;;;4996776;28;20038;-55
2023/05/16 14:07:12;;;;;;;22.27;21.08;;;;;;;;;;4992199;28;20049;-57
2023/05/16 14:09:38;;;;;;;19.38;18.30;;;;;;;;;;4996956;28;20042;-55
2023/05/16 14:12:07;;;;;;;21.02;19.92;;;;;;;;;;4993704;28;20034;-54
2023/05/16 14:14:36;;;;;;;20.77;19.67;;;;;;;;;;4995963;28;20499;-55
2023/05/16 14:17:02;;;;;;;21.58;20.40;;;;;;;;;;4995201;28;20185;-55
2023/05/16 14:19:28;;;;;;;21.23;20.02;;;;;;;;;;4979348;28;20030;-54